createdAt,value
2022-12-25T00:01:26.051Z,60.16
2022-12-25T00:03:54.217Z,60.17
2022-12-25T00:06:22.246Z,59.99
2022-12-25T00:08:50.105Z,59.82
2022-12-25T00:11:19.886Z,59.64
2022-12-25T00:13:48.820Z,59.85
2022-12-25T00:16:21.104Z,59.73
2022-12-25T00:18:48.969Z,59.80
2022-12-25T00:21:18.181Z,59.78
2022-12-25T00:23:47.247Z,59.82
2022-12-25T00:26:18.199Z,59.88
2022-12-25T00:28:46.466Z,59.71
2022-12-25T00:31:17.976Z,59.67
2022-12-25T00:33:47.817Z,59.83
2022-12-25T00:36:18.256Z,59.85
2022-12-25T00:38:47.004Z,59.59
2022-12-25T00:41:42.564Z,59.56
2022-12-25T00:44:13.802Z,59.83
2022-12-25T00:46:42.987Z,59.73
2022-12-25T00:49:12.314Z,59.54
2022-12-25T00:51:40.333Z,59.75
2022-12-25T00:54:08.208Z,59.60
2022-12-25T00:56:36.343Z,59.73
2022-12-25T00:59:04.233Z,59.56
2022-12-25T01:01:33.426Z,59.48
2022-12-25T01:04:01.655Z,59.53
2022-12-25T01:06:29.826Z,59.57
2022-12-25T01:09:17.427Z,59.58
2022-12-25T01:11:45.905Z,59.63
2022-12-25T01:14:14.099Z,59.65
2022-12-25T01:16:42.594Z,59.62
2022-12-25T01:19:11.976Z,59.65
2022-12-25T01:21:40.743Z,59.54
2022-12-25T01:24:09.119Z,59.72
2022-12-25T01:26:37.606Z,59.59
2022-12-25T01:29:05.568Z,59.54
2022-12-25T01:31:33.799Z,59.72
2022-12-25T01:34:01.783Z,59.53
2022-12-25T01:36:29.795Z,59.57
2022-12-25T01:38:57.720Z,59.52
2022-12-25T01:41:25.706Z,59.46
2022-12-25T01:44:06.104Z,59.33
2022-12-25T01:46:35.575Z,59.36
2022-12-25T01:49:25.668Z,59.13
2022-12-25T01:52:17.524Z,59.46
2022-12-25T01:55:06.101Z,59.40
2022-12-25T01:57:37.576Z,59.56
2022-12-25T02:00:08.094Z,59.48
2022-12-25T02:02:37.253Z,59.38
2022-12-25T02:05:25.960Z,59.25
2022-12-25T02:07:54.562Z,59.32
2022-12-25T02:10:23.321Z,59.44
2022-12-25T02:12:52.429Z,59.23
2022-12-25T02:15:27.229Z,59.25
2022-12-25T02:18:31.919Z,59.31
2022-12-25T02:21:25.609Z,59.62
2022-12-25T02:24:21.843Z,59.33
2022-12-25T02:27:19.470Z,59.22
2022-12-25T02:30:03.395Z,59.20
2022-12-25T02:32:31.639Z,59.35
2022-12-25T02:35:10.356Z,59.16
2022-12-25T02:38:07.334Z,59.07
2022-12-25T02:40:43.694Z,59.36
2022-12-25T02:43:50.125Z,59.28
2022-12-25T02:46:41.837Z,59.36
2022-12-25T02:49:38.108Z,59.37
2022-12-25T02:52:31.241Z,59.42
2022-12-25T02:55:35.718Z,59.33
2022-12-25T02:58:30.028Z,59.35
2022-12-25T03:01:25.816Z,59.42
2022-12-25T03:04:16.184Z,59.39
2022-12-25T03:07:18.982Z,59.23
2022-12-25T03:10:21.705Z,59.29
2022-12-25T03:13:14.803Z,58.99
2022-12-25T03:16:02.164Z,59.45
2022-12-25T03:18:31.319Z,59.44
2022-12-25T03:21:19.145Z,59.29
2022-12-25T03:24:12.397Z,59.07
2022-12-25T03:26:55.507Z,59.17
2022-12-25T03:29:49.932Z,58.82
2022-12-25T03:32:44.244Z,58.75
2022-12-25T03:36:07.319Z,58.75
2022-12-25T03:38:51.059Z,58.57
2022-12-25T03:42:08.478Z,58.35
2022-12-25T03:45:01.446Z,58.50
2022-12-25T03:47:53.810Z,58.48
2022-12-25T03:50:44.895Z,58.72
2022-12-25T03:53:41.219Z,58.97
2022-12-25T03:56:28.951Z,59.05
2022-12-25T03:59:23.147Z,59.05
2022-12-25T04:02:11.072Z,59.33
2022-12-25T04:04:57.848Z,59.34
2022-12-25T04:07:44.497Z,59.54
2022-12-25T04:10:30.860Z,59.61
2022-12-25T04:13:17.507Z,59.56
2022-12-25T04:16:03.920Z,59.46
2022-12-25T04:18:50.763Z,59.64
2022-12-25T04:21:37.409Z,59.65
2022-12-25T04:24:24.436Z,59.67
2022-12-25T04:27:10.999Z,59.61
2022-12-25T04:29:58.032Z,59.59
2022-12-25T04:32:44.611Z,59.55
2022-12-25T04:35:31.666Z,59.49
2022-12-25T04:37:59.533Z,59.58
2022-12-25T04:40:27.519Z,59.64
2022-12-25T04:42:55.178Z,59.52
2022-12-25T04:45:22.931Z,59.57
2022-12-25T04:47:50.633Z,59.58
2022-12-25T04:50:18.607Z,59.56
2022-12-25T04:52:46.473Z,59.43
2022-12-25T04:55:14.387Z,59.35
2022-12-25T04:57:42.121Z,59.49
2022-12-25T05:00:10.741Z,59.14
2022-12-25T05:02:38.572Z,59.21
2022-12-25T05:05:06.827Z,59.26
2022-12-25T05:07:34.506Z,59.38
2022-12-25T05:10:02.299Z,59.48
2022-12-25T05:12:30.251Z,59.47
2022-12-25T05:14:58.101Z,59.56
2022-12-25T05:17:26.015Z,59.56
2022-12-25T05:19:53.692Z,59.59
2022-12-25T05:22:21.403Z,59.75
2022-12-25T05:24:49.403Z,59.60
2022-12-25T05:27:17.228Z,59.66
2022-12-25T05:29:44.973Z,59.55
2022-12-25T05:32:26.387Z,60.10
2022-12-25T05:34:54.078Z,59.96
2022-12-25T05:37:41.684Z,59.80
2022-12-25T05:40:10.301Z,59.71
2022-12-25T05:42:38.067Z,59.56
2022-12-25T05:45:06.627Z,59.45
2022-12-25T05:47:34.266Z,59.45
2022-12-25T05:50:02.383Z,59.34
2022-12-25T05:52:34.614Z,59.06
2022-12-25T05:55:02.718Z,59.07
2022-12-25T05:57:31.932Z,58.90
2022-12-25T05:59:59.638Z,58.96
2022-12-25T06:02:27.602Z,58.72
2022-12-25T06:04:55.530Z,58.76
2022-12-25T06:07:23.404Z,58.87
2022-12-25T06:09:51.144Z,59.07
2022-12-25T06:12:18.948Z,59.03
2022-12-25T06:14:46.682Z,59.08
2022-12-25T06:17:14.482Z,59.21
2022-12-25T06:19:42.793Z,59.09
2022-12-25T06:22:10.626Z,59.25
2022-12-25T06:24:38.639Z,59.06
2022-12-25T06:27:06.333Z,59.07
2022-12-25T06:29:34.223Z,58.97
2022-12-25T06:32:01.881Z,58.86
2022-12-25T06:34:30.097Z,58.74
2022-12-25T06:36:57.819Z,58.79
2022-12-25T06:39:25.608Z,58.78
2022-12-25T06:41:53.465Z,58.79
2022-12-25T06:44:21.356Z,58.78
2022-12-25T06:46:49.025Z,58.75
2022-12-25T06:49:16.740Z,58.77
2022-12-25T06:51:44.396Z,58.92
2022-12-25T06:54:12.152Z,58.94
2022-12-25T06:56:40.039Z,58.77
2022-12-25T06:59:10.848Z,59.00
2022-12-25T07:01:56.413Z,58.83
2022-12-25T07:04:37.923Z,58.73
2022-12-25T07:07:09.200Z,58.91
2022-12-25T07:09:39.039Z,58.93
2022-12-25T07:12:23.544Z,58.62
2022-12-25T07:14:55.444Z,58.72
2022-12-25T07:17:24.637Z,58.84
2022-12-25T07:19:52.436Z,58.74
2022-12-25T07:22:20.264Z,58.87
2022-12-25T07:24:48.110Z,58.69
2022-12-25T07:27:15.825Z,58.82
2022-12-25T07:29:43.739Z,58.85
2022-12-25T07:32:12.409Z,58.73
2022-12-25T07:34:40.317Z,58.89
2022-12-25T07:37:08.197Z,58.71
2022-12-25T07:39:35.932Z,58.67
2022-12-25T07:42:04.157Z,58.54
2022-12-25T07:44:32.429Z,58.81
2022-12-25T07:47:00.193Z,58.71
2022-12-25T07:49:28.080Z,58.97
2022-12-25T07:51:55.851Z,58.92
2022-12-25T07:54:23.878Z,58.91
2022-12-25T07:56:54.769Z,58.95
2022-12-25T07:59:22.632Z,58.85
2022-12-25T08:01:51.158Z,58.84
2022-12-25T08:04:19.170Z,58.94
2022-12-25T08:06:47.283Z,59.03
2022-12-25T08:09:15.281Z,59.01
2022-12-25T08:11:47.380Z,58.90
2022-12-25T08:14:15.884Z,59.03
2022-12-25T08:16:44.623Z,58.92
2022-12-25T08:19:14.647Z,58.99
2022-12-25T08:21:43.309Z,58.88
2022-12-25T08:24:11.872Z,58.88
2022-12-25T08:26:39.653Z,58.78
2022-12-25T08:29:07.818Z,58.75
2022-12-25T08:31:42.475Z,58.81
2022-12-25T08:34:13.860Z,58.86
2022-12-25T08:36:42.048Z,59.03
2022-12-25T08:39:10.065Z,58.83
2022-12-25T08:41:42.453Z,58.79
2022-12-25T08:44:12.547Z,58.86
2022-12-25T08:46:40.561Z,59.04
2022-12-25T08:49:08.608Z,58.76
2022-12-25T08:51:37.376Z,58.95
2022-12-25T08:54:05.370Z,58.99
2022-12-25T08:56:33.437Z,59.01
2022-12-25T08:59:01.468Z,59.33
2022-12-25T09:01:29.714Z,59.13
2022-12-25T09:03:57.710Z,59.18
2022-12-25T09:06:25.796Z,59.34
2022-12-25T09:08:53.743Z,59.37
2022-12-25T09:11:22.400Z,59.27
2022-12-25T09:13:50.877Z,59.16
2022-12-25T09:16:22.213Z,59.43
2022-12-25T09:18:51.450Z,59.79
2022-12-25T09:21:19.835Z,59.86
2022-12-25T09:23:48.388Z,59.81
2022-12-25T09:26:18.887Z,59.72
2022-12-25T09:28:51.903Z,59.71
2022-12-25T09:31:22.600Z,59.52
2022-12-25T09:33:55.347Z,59.50
2022-12-25T09:36:25.663Z,59.44
2022-12-25T09:38:53.623Z,59.12
2022-12-25T09:41:49.149Z,59.00
2022-12-25T09:44:56.667Z,59.03
2022-12-25T09:47:32.222Z,59.10
2022-12-25T09:50:19.364Z,58.71
2022-12-25T09:53:04.406Z,58.58
2022-12-25T09:55:38.607Z,58.69
2022-12-25T09:58:13.039Z,58.50
2022-12-25T10:00:56.010Z,58.49
2022-12-25T10:03:42.017Z,58.33
2022-12-25T10:06:28.084Z,58.27
2022-12-25T10:09:10.791Z,58.08
2022-12-25T10:12:12.905Z,58.09
2022-12-25T10:15:16.037Z,58.23
2022-12-25T10:18:07.899Z,58.10
2022-12-25T10:20:54.686Z,58.22
2022-12-25T10:23:38.966Z,58.28
2022-12-25T10:26:21.380Z,58.19
2022-12-25T10:29:16.787Z,58.14
2022-12-25T10:31:48.363Z,58.37
2022-12-25T10:34:17.069Z,58.79
2022-12-25T10:36:46.469Z,58.74
2022-12-25T10:39:26.735Z,58.38
2022-12-25T10:42:39.454Z,58.24
2022-12-25T10:45:09.576Z,58.54
2022-12-25T10:47:42.701Z,58.36
2022-12-25T10:50:25.457Z,58.15
2022-12-25T10:53:26.637Z,58.28
2022-12-25T10:56:05.389Z,58.40
2022-12-25T10:58:34.196Z,58.40
2022-12-25T11:01:07.566Z,58.19
2022-12-25T11:03:45.951Z,58.15
2022-12-25T11:06:31.130Z,58.19
2022-12-25T11:09:01.585Z,58.27
2022-12-25T11:11:30.677Z,58.27
2022-12-25T11:14:02.049Z,58.17
2022-12-25T11:16:37.027Z,58.57
2022-12-25T11:19:31.521Z,58.26
2022-12-25T11:22:03.368Z,58.32
2022-12-25T11:24:35.134Z,58.08
2022-12-25T11:27:08.936Z,57.98
2022-12-25T11:29:53.194Z,57.78
2022-12-25T11:32:55.584Z,57.62
2022-12-25T11:35:53.003Z,57.63
2022-12-25T11:38:21.457Z,57.73
2022-12-25T11:40:58.696Z,57.43
2022-12-25T11:43:53.634Z,57.09
2022-12-25T11:46:50.314Z,57.21
2022-12-25T11:49:21.572Z,57.42
2022-12-25T11:51:56.579Z,57.23
2022-12-25T11:54:45.896Z,57.11
2022-12-25T11:57:13.917Z,57.25
2022-12-25T11:59:56.355Z,56.90
2022-12-25T12:02:43.051Z,56.83
2022-12-25T12:05:43.277Z,56.74
2022-12-25T12:08:11.802Z,57.07
2022-12-25T12:11:16.309Z,56.61
2022-12-25T12:13:59.421Z,56.87
2022-12-25T12:16:27.641Z,57.04
2022-12-25T12:18:55.707Z,56.84
2022-12-25T12:21:30.084Z,56.50
2022-12-25T12:24:12.574Z,56.41
2022-12-25T12:26:44.489Z,56.49
2022-12-25T12:29:46.059Z,56.37
2022-12-25T12:32:49.579Z,56.40
2022-12-25T12:35:20.264Z,56.55
2022-12-25T12:37:57.356Z,56.41
2022-12-25T12:40:37.326Z,56.28
2022-12-25T12:43:22.944Z,56.40
2022-12-25T12:45:58.037Z,56.33
2022-12-25T12:48:29.607Z,56.28
2022-12-25T12:51:11.628Z,56.16
2022-12-25T12:53:42.663Z,56.39
2022-12-25T12:56:20.268Z,56.51
2022-12-25T12:58:51.129Z,56.33
2022-12-25T13:02:06.018Z,56.22
2022-12-25T13:05:07.480Z,56.37
2022-12-25T13:07:57.750Z,56.29
2022-12-25T13:10:35.329Z,56.43
2022-12-25T13:13:24.381Z,56.29
2022-12-25T13:15:53.217Z,56.52
2022-12-25T13:18:22.561Z,56.49
2022-12-25T13:20:57.329Z,56.22
2022-12-25T13:23:29.110Z,56.29
2022-12-25T13:26:10.836Z,56.09
2022-12-25T13:28:38.754Z,56.27
2022-12-25T13:31:14.028Z,56.13
2022-12-25T13:34:09.517Z,56.22
2022-12-25T13:36:40.125Z,56.29
2022-12-25T13:39:14.363Z,56.43
2022-12-25T13:42:08.552Z,56.30
2022-12-25T13:44:55.100Z,56.58
2022-12-25T13:47:35.478Z,56.48
2022-12-25T13:50:33.968Z,56.55
2022-12-25T13:53:15.764Z,56.59
2022-12-25T13:55:52.368Z,56.45
2022-12-25T13:58:33.817Z,56.30
2022-12-25T14:01:03.005Z,57.16
2022-12-25T14:03:46.058Z,56.80
2022-12-25T14:06:21.505Z,56.73
2022-12-25T14:08:49.896Z,56.73
2022-12-25T14:11:22.179Z,56.64
2022-12-25T14:13:59.914Z,56.61
2022-12-25T14:16:28.314Z,56.53
2022-12-25T14:18:59.696Z,56.42
2022-12-25T14:21:38.330Z,56.96
2022-12-25T14:24:15.049Z,56.61
2022-12-25T14:26:43.311Z,56.62
2022-12-25T14:29:18.220Z,56.38
2022-12-25T14:31:47.976Z,56.37
2022-12-25T14:34:25.061Z,56.00
2022-12-25T14:36:53.416Z,56.20
2022-12-25T14:39:36.238Z,55.88
2022-12-25T14:42:26.785Z,55.84
2022-12-25T14:45:39.605Z,55.89
2022-12-25T14:48:26.378Z,55.92
2022-12-25T14:51:02.867Z,55.97
2022-12-25T14:53:54.463Z,55.89
2022-12-25T14:56:25.629Z,56.00
2022-12-25T14:58:59.307Z,56.04
2022-12-25T15:01:41.510Z,55.82
2022-12-25T15:04:12.619Z,55.83
2022-12-25T15:07:08.335Z,56.04
2022-12-25T15:09:37.654Z,56.14
2022-12-25T15:12:06.154Z,56.01
2022-12-25T15:14:36.298Z,56.15
2022-12-25T15:17:04.528Z,56.10
2022-12-25T15:19:38.644Z,56.05
2022-12-25T15:22:06.947Z,56.17
2022-12-25T15:24:34.908Z,56.30
2022-12-25T15:27:02.826Z,56.17
2022-12-25T15:30:09.327Z,56.18
2022-12-25T15:32:22.201Z,56.12
2022-12-25T15:34:50.456Z,56.27
2022-12-25T15:37:19.225Z,56.33
2022-12-25T15:39:47.193Z,56.38
2022-12-25T15:42:19.477Z,56.29
2022-12-25T15:44:47.476Z,56.41
2022-12-25T15:47:20.190Z,56.26
2022-12-25T15:49:49.079Z,56.27
2022-12-25T15:52:17.731Z,56.41
2022-12-25T15:54:45.574Z,56.41
2022-12-25T15:57:21.388Z,56.38
2022-12-25T15:59:49.545Z,56.59
2022-12-25T16:02:21.057Z,56.47
2022-12-25T16:04:51.122Z,56.69
2022-12-25T16:07:25.046Z,56.50
2022-12-25T16:09:53.182Z,56.65
2022-12-25T16:12:21.381Z,56.75
2022-12-25T16:14:49.067Z,56.72
2022-12-25T16:17:17.108Z,56.84
2022-12-25T16:19:45.067Z,56.88
2022-12-25T16:22:18.932Z,56.89
2022-12-25T16:24:47.043Z,56.90
2022-12-25T16:27:15.388Z,57.07
2022-12-25T16:29:43.694Z,57.22
2022-12-25T16:32:12.959Z,57.17
2022-12-25T16:34:41.480Z,57.11
2022-12-25T16:37:09.656Z,57.25
2022-12-25T16:39:39.052Z,57.25
2022-12-25T16:42:06.874Z,57.39
2022-12-25T16:44:37.435Z,57.48
2022-12-25T16:47:05.905Z,57.78
2022-12-25T16:49:34.848Z,57.69
2022-12-25T16:52:03.894Z,57.82
2022-12-25T16:54:31.624Z,57.83
2022-12-25T16:56:59.394Z,57.71
2022-12-25T16:59:29.652Z,57.71
2022-12-25T17:01:57.579Z,57.54
2022-12-25T17:04:27.934Z,57.42
2022-12-25T17:06:56.387Z,57.38
2022-12-25T17:09:24.892Z,57.21
2022-12-25T17:11:52.648Z,57.14
2022-12-25T17:14:20.699Z,57.16
2022-12-25T17:16:48.853Z,56.89
2022-12-25T17:19:20.249Z,56.95
2022-12-25T17:21:48.422Z,56.94
2022-12-25T17:24:16.895Z,56.95
2022-12-25T17:26:45.045Z,56.81
2022-12-25T17:29:19.995Z,56.92
2022-12-25T17:31:49.999Z,56.87
2022-12-25T17:34:17.975Z,56.99
2022-12-25T17:36:45.910Z,57.01
2022-12-25T17:39:14.023Z,57.16
2022-12-25T17:41:42.042Z,57.15
2022-12-25T17:44:10.774Z,57.10
2022-12-25T17:46:38.889Z,57.16
2022-12-25T17:49:08.568Z,57.22
2022-12-25T17:51:36.913Z,57.21
2022-12-25T17:54:05.631Z,57.13
2022-12-25T17:56:34.828Z,57.27
2022-12-25T17:59:08.086Z,57.12
2022-12-25T18:01:39.048Z,57.19
2022-12-25T18:04:08.146Z,57.36
2022-12-25T18:06:37.054Z,57.18
2022-12-25T18:09:06.534Z,57.35
2022-12-25T18:11:38.329Z,57.36
2022-12-25T18:14:09.803Z,57.32
2022-12-25T18:16:42.210Z,57.35
2022-12-25T18:19:11.961Z,57.51
2022-12-25T18:21:39.976Z,57.53
2022-12-25T18:24:08.819Z,57.49
2022-12-25T18:26:37.829Z,57.43
2022-12-25T18:29:07.183Z,57.33
2022-12-25T18:31:35.845Z,57.54
2022-12-25T18:34:04.544Z,57.56
2022-12-25T18:36:35.333Z,57.68
2022-12-25T18:39:03.909Z,57.57
2022-12-25T18:41:51.857Z,57.55
2022-12-25T18:44:20.151Z,57.45
2022-12-25T18:46:48.254Z,57.60
2022-12-25T18:49:16.101Z,57.58
2022-12-25T18:51:44.491Z,57.78
2022-12-25T18:54:12.524Z,57.62
2022-12-25T18:56:41.978Z,57.60
2022-12-25T18:59:10.064Z,57.58
2022-12-25T19:01:37.967Z,57.56
2022-12-25T19:04:06.233Z,57.49
2022-12-25T19:06:34.150Z,57.65
2022-12-25T19:09:09.079Z,57.63
2022-12-25T19:11:46.064Z,57.58
2022-12-25T19:14:15.396Z,57.72
2022-12-25T19:16:43.573Z,57.65
2022-12-25T19:19:27.766Z,57.57
2022-12-25T19:21:57.610Z,57.69
2022-12-25T19:24:26.415Z,57.53
2022-12-25T19:26:54.982Z,57.57
2022-12-25T19:29:24.365Z,57.75
2022-12-25T19:31:52.652Z,57.88
2022-12-25T19:34:22.802Z,57.96
2022-12-25T19:36:52.001Z,58.11
2022-12-25T19:39:20.165Z,58.12
2022-12-25T19:41:49.057Z,58.21
2022-12-25T19:44:17.220Z,58.20
2022-12-25T19:46:45.804Z,58.36
2022-12-25T19:49:14.815Z,58.52
2022-12-25T19:51:46.266Z,58.42
2022-12-25T19:54:17.299Z,58.42
2022-12-25T19:56:45.657Z,58.47
2022-12-25T19:59:14.769Z,58.55
2022-12-25T20:01:43.579Z,58.58
2022-12-25T20:04:12.053Z,58.42
2022-12-25T20:06:42.516Z,58.37
2022-12-25T20:09:20.859Z,58.38
2022-12-25T20:11:50.738Z,58.23
2022-12-25T20:14:19.772Z,58.13
2022-12-25T20:16:47.861Z,58.08
2022-12-25T20:19:16.369Z,57.81
2022-12-25T20:21:44.460Z,57.62
2022-12-25T20:24:12.540Z,57.49
2022-12-25T20:26:41.178Z,57.42
2022-12-25T20:29:09.103Z,57.11
2022-12-25T20:31:38.208Z,57.20
2022-12-25T20:34:09.413Z,57.18
2022-12-25T20:36:38.386Z,57.20
2022-12-25T20:39:10.055Z,57.18
2022-12-25T20:41:39.720Z,57.30
2022-12-25T20:44:10.220Z,57.36
2022-12-25T20:46:38.369Z,57.69
2022-12-25T20:49:06.721Z,57.80
2022-12-25T20:51:35.776Z,57.95
2022-12-25T20:54:10.237Z,57.91
2022-12-25T20:56:38.907Z,58.11
2022-12-25T20:59:07.039Z,58.16
2022-12-25T21:01:34.899Z,58.06
2022-12-25T21:04:04.110Z,57.79
2022-12-25T21:06:31.895Z,57.65
2022-12-25T21:09:00.124Z,57.49
2022-12-25T21:11:28.264Z,57.28
2022-12-25T21:13:56.337Z,57.25
2022-12-25T21:16:26.049Z,57.20
2022-12-25T21:18:56.413Z,57.17
2022-12-25T21:21:25.594Z,57.09
2022-12-25T21:23:56.783Z,56.98
2022-12-25T21:26:31.447Z,56.80
2022-12-25T21:29:02.301Z,56.75
2022-12-25T21:31:30.991Z,56.68
2022-12-25T21:33:59.591Z,56.87
2022-12-25T21:36:34.628Z,56.82
2022-12-25T21:39:07.417Z,56.82
2022-12-25T21:41:39.179Z,56.92
2022-12-25T21:44:07.877Z,57.39
2022-12-25T21:46:35.939Z,57.30
2022-12-25T21:49:03.941Z,57.34
2022-12-25T21:51:52.674Z,57.31
2022-12-25T21:54:23.373Z,57.68
2022-12-25T21:56:51.868Z,57.72
2022-12-25T21:59:22.275Z,57.63
2022-12-25T22:01:52.776Z,57.76
2022-12-25T22:04:23.090Z,57.88
2022-12-25T22:07:10.383Z,57.80
2022-12-25T22:09:38.792Z,57.81
2022-12-25T22:12:33.489Z,57.86
2022-12-25T22:15:06.795Z,58.01
2022-12-25T22:17:58.318Z,57.75
2022-12-25T22:20:36.505Z,57.91
2022-12-25T22:23:05.569Z,57.93
2022-12-25T22:25:33.635Z,57.82
2022-12-25T22:28:01.759Z,57.58
2022-12-25T22:30:30.470Z,57.85
2022-12-25T22:32:59.168Z,57.95
2022-12-25T22:35:27.447Z,57.85
2022-12-25T22:37:55.779Z,57.83
2022-12-25T22:40:23.739Z,58.02
2022-12-25T22:42:55.412Z,58.00
2022-12-25T22:45:24.429Z,57.92
2022-12-25T22:47:53.033Z,57.53
2022-12-25T22:50:20.901Z,57.40
2022-12-25T22:52:48.825Z,57.50
2022-12-25T22:55:19.326Z,57.38
2022-12-25T22:57:47.258Z,57.41
2022-12-25T23:00:15.519Z,57.38
2022-12-25T23:02:43.607Z,57.32
2022-12-25T23:05:11.477Z,57.16
2022-12-25T23:07:40.501Z,57.28
2022-12-25T23:10:10.329Z,57.38
2022-12-25T23:12:57.081Z,57.38
2022-12-25T23:15:27.517Z,57.58
2022-12-25T23:18:14.199Z,57.67
2022-12-25T23:21:00.743Z,57.74
2022-12-25T23:23:47.418Z,57.88
2022-12-25T23:26:16.546Z,57.70
2022-12-25T23:29:03.446Z,57.97
2022-12-25T23:31:36.611Z,57.87
2022-12-25T23:34:06.614Z,58.10
2022-12-25T23:36:34.847Z,58.06
2022-12-25T23:39:09.766Z,57.94
2022-12-25T23:41:40.925Z,57.80
2022-12-25T23:44:11.424Z,57.91
2022-12-25T23:46:41.336Z,57.90
2022-12-25T23:49:22.278Z,57.87
2022-12-25T23:51:50.405Z,57.69
2022-12-25T23:54:23.254Z,57.48
2022-12-25T23:56:52.111Z,57.65
2022-12-25T23:59:20.332Z,57.54
